Time;durP1;ratioP1;P1;durP2;ratioP2;P2;SDS_P1;SDS_P2;PMS_P1;PMS_P2;Temp;Humidity;BMP_temperature;BMP_pressure;BME280_temperature;BME280_humidity;BME280_pressure;Samples;Min_cycle;Max_cycle;Signal;HPM_P1;HPM_P2
2022/07/02 00:00:22;;;;;;;6.60;6.30;;;;;;;12.91;100.00;102125.69;6013811;23;20179;-66
2022/07/02 00:02:51;;;;;;;4.85;4.65;;;;;;;12.88;100.00;102120.53;5998268;23;20078;-67
2022/07/02 00:05:22;;;;;;;6.75;6.45;;;;;;;12.38;100.00;102059.22;6020891;23;20042;-66
2022/07/02 00:07:50;;;;;;;4.95;4.75;;;;;;;12.33;100.00;102052.44;5996944;23;20069;-67
2022/07/02 00:10:19;;;;;;;6.30;6.00;;;;;;;12.63;100.00;102100.44;6021019;23;20109;-66
2022/07/02 00:12:46;;;;;;;4.72;4.53;;;;;;;12.77;100.00;102131.50;5994223;23;20067;-66
2022/07/02 00:15:16;;;;;;;6.15;5.85;;;;;;;12.75;100.00;102128.09;6024431;23;20031;-66
2022/07/02 00:17:44;;;;;;;5.00;4.80;;;;;;;12.72;100.00;102125.56;6021097;23;20023;-66
2022/07/02 00:20:11;;;;;;;5.65;5.40;;;;;;;12.54;100.00;102100.78;6035966;23;20086;-66
2022/07/02 00:22:38;;;;;;;5.10;4.90;;;;;;;12.65;100.00;102118.78;6027851;23;20046;-65
2022/07/02 00:25:05;;;;;;;4.85;4.65;;;;;;;12.65;100.00;102122.31;6020248;23;20055;-65
2022/07/02 00:27:33;;;;;;;5.07;4.88;;;;;;;12.35;100.00;102098.84;6022686;23;20330;-66
2022/07/02 00:30:01;;;;;;;5.00;4.80;;;;;;;12.40;100.00;102100.44;6024759;23;20266;-66
2022/07/02 00:32:32;;;;;;;5.43;5.00;;;;;;;12.57;100.00;102125.22;6020564;23;20023;-65
2022/07/02 00:35:04;;;;;;;4.70;4.50;;;;;;;12.41;100.00;102117.94;6023192;23;20034;-66
2022/07/02 00:37:32;;;;;;;4.90;4.70;;;;;;;12.50;100.00;102128.13;6033848;23;20030;-66
2022/07/02 00:39:58;;;;;;;5.10;4.90;;;;;;;12.48;100.00;102151.03;6021929;23;20018;-66
2022/07/02 00:42:25;;;;;;;5.35;5.15;;;;;;;12.45;100.00;102130.06;6020015;23;20204;-66
2022/07/02 00:44:53;;;;;;;4.80;4.60;;;;;;;12.42;100.00;102127.56;6026607;23;20476;-66
2022/07/02 00:47:22;;;;;;;6.55;6.25;;;;;;;12.35;100.00;102125.16;6029345;23;20018;-64
2022/07/02 00:49:49;;;;;;;4.57;4.38;;;;;;;12.08;100.00;102095.44;5997560;23;20199;-66
2022/07/02 00:52:15;;;;;;;6.95;6.65;;;;;;;12.31;100.00;102126.19;5993572;23;20020;-65
2022/07/02 00:54:42;;;;;;;4.80;4.60;;;;;;;12.23;100.00;102162.47;6024453;23;20413;-65
2022/07/02 00:57:11;;;;;;;5.53;5.22;;;;;;;12.17;100.00;102131.09;6022373;23;20495;-66
2022/07/02 00:59:38;;;;;;;4.90;4.70;;;;;;;11.80;100.00;102060.47;6017707;23;20444;-70
2022/07/02 01:02:07;;;;;;;4.85;4.65;;;;;;;12.08;100.00;102129.63;6029989;23;20089;-71
2022/07/02 01:04:33;;;;;;;5.03;4.82;;;;;;;12.00;100.00;102126.41;6023681;23;20027;-70
2022/07/02 01:07:06;;;;;;;4.85;4.65;;;;;;;11.09;100.00;101969.16;6000623;23;20395;-68
2022/07/02 01:12:24;;;;;;;6.70;6.40;;;;;;;11.86;100.00;102111.09;6016289;23;20035;-70
2022/07/02 01:14:51;;;;;;;4.70;4.50;;;;;;;11.84;100.00;102119.94;6028250;23;20074;-71
2022/07/02 01:17:18;;;;;;;6.25;5.95;;;;;;;11.81;100.00;102139.34;6019171;23;20033;-68
2022/07/02 01:19:45;;;;;;;4.75;4.55;;;;;;;11.77;100.00;102111.41;6023153;23;20021;-70
2022/07/02 01:22:13;;;;;;;5.50;5.30;;;;;;;11.57;100.00;102067.41;6022962;23;20034;-70
2022/07/02 01:24:41;;;;;;;4.72;4.53;;;;;;;11.76;100.00;102142.09;6015842;23;20055;-70
2022/07/02 01:27:08;;;;;;;5.72;5.45;;;;;;;11.20;100.00;102030.97;6048755;23;20018;-71
2022/07/02 01:29:35;;;;;;;4.70;4.50;;;;;;;11.69;100.00;102111.69;6011056;23;20117;-68
2022/07/02 01:32:03;;;;;;;4.80;4.60;;;;;;;10.56;100.00;101919.25;6020484;23;20011;-70
2022/07/02 01:34:35;;;;;;;4.65;4.45;;;;;;;11.66;100.00;102103.88;6026065;23;20139;-69
2022/07/02 01:37:03;;;;;;;5.28;5.07;;;;;;;11.64;100.00;102126.75;6030387;23;20416;-69
2022/07/02 01:39:29;;;;;;;4.95;4.70;;;;;;;11.62;100.00;102107.53;6023825;23;20441;-70
2022/07/02 01:41:56;;;;;;;4.60;4.40;;;;;;;11.42;100.00;102067.91;6026819;23;20151;-69
2022/07/02 01:44:22;;;;;;;6.35;6.05;;;;;;;11.42;100.00;102089.78;6020975;23;20565;-70
2022/07/02 01:46:48;;;;;;;4.70;4.50;;;;;;;11.58;100.00;102117.28;6025941;23;20097;-69
2022/07/02 01:49:15;;;;;;;6.07;5.78;;;;;;;11.13;100.00;102035.59;6021928;23;20031;-71
2022/07/02 01:51:41;;;;;;;5.20;5.00;;;;;;;11.55;100.00;102106.88;6022700;23;20085;-68
2022/07/02 01:54:08;;;;;;;4.80;4.60;;;;;;;11.03;100.00;102031.56;5985605;23;20093;-69
2022/07/02 01:56:35;;;;;;;4.88;4.68;;;;;;;11.54;100.00;102120.06;6020690;23;20027;-69
2022/07/02 01:59:02;;;;;;;4.80;4.60;;;;;;;11.16;100.00;102049.50;6033989;23;20022;-70
2022/07/02 02:01:28;;;;;;;4.95;4.75;;;;;;;11.32;100.00;102075.25;6014290;23;22690;-70
2022/07/02 02:03:55;;;;;;;4.72;4.53;;;;;;;11.50;100.00;102103.53;6025545;23;20063;-70
2022/07/02 02:06:22;;;;;;;6.22;5.93;;;;;;;11.48;100.00;102121.13;6020486;23;20038;-69
2022/07/02 02:08:48;;;;;;;4.70;4.50;;;;;;;11.07;100.00;102057.66;6024175;23;20371;-69
2022/07/02 02:11:15;;;;;;;6.57;6.28;;;;;;;11.47;100.00;102124.69;6022188;23;20484;-68
2022/07/02 02:13:42;;;;;;;4.90;4.70;;;;;;;11.45;100.00;102118.63;6021576;23;20562;-70
2022/07/02 02:16:08;;;;;;;5.88;5.60;;;;;;;11.47;100.00;102121.22;6023670;23;20100;-70
2022/07/02 02:18:35;;;;;;;4.40;4.20;;;;;;;11.48;100.00;102118.50;6020457;23;20456;-67
2022/07/02 02:21:02;;;;;;;4.68;4.47;;;;;;;10.07;100.00;101884.06;6040853;23;20054;-69
2022/07/02 02:23:28;;;;;;;4.60;4.40;;;;;;;11.43;100.00;102122.22;6018344;23;20091;-68
2022/07/02 02:25:54;;;;;;;4.70;4.50;;;;;;;11.41;100.00;102129.28;6022116;23;20035;-69
2022/07/02 02:28:22;;;;;;;5.97;5.68;;;;;;;11.00;100.00;102050.03;6033747;23;20239;-70
2022/07/02 02:30:49;;;;;;;4.75;4.55;;;;;;;11.11;100.00;102075.03;6019148;23;20010;-69
2022/07/02 02:33:15;;;;;;;8.20;7.80;;;;;;;11.36;100.00;102113.66;6021447;23;20015;-69
2022/07/02 02:35:41;;;;;;;4.70;4.50;;;;;;;11.35;100.00;102111.94;5998382;23;20023;-70
2022/07/02 02:38:08;;;;;;;5.38;5.13;;;;;;;11.33;100.00;102132.16;6019198;23;20077;-70
2022/07/02 02:40:35;;;;;;;5.00;4.70;;;;;;;11.34;100.00;102118.94;5997830;23;20024;-69
2022/07/02 02:43:01;;;;;;;4.53;4.32;;;;;;;11.32;100.00;102119.91;6019585;23;20023;-69
2022/07/02 02:45:27;;;;;;;4.78;4.57;;;;;;;11.33;100.00;102126.91;6020066;23;20021;-69
2022/07/02 02:47:54;;;;;;;4.85;4.65;;;;;;;11.30;100.00;102127.00;6009464;23;20026;-70
2022/07/02 02:50:20;;;;;;;4.78;4.57;;;;;;;11.30;100.00;102122.59;6024499;23;20027;-70
2022/07/02 02:52:47;;;;;;;4.68;4.47;;;;;;;11.30;100.00;102138.38;6028764;23;20510;-68
2022/07/02 02:55:13;;;;;;;4.60;4.40;;;;;;;11.17;100.00;102132.66;6025785;23;20046;-69
2022/07/02 02:57:39;;;;;;;4.70;4.50;;;;;;;11.25;100.00;102135.03;6043054;23;20030;-70
2022/07/02 03:00:06;;;;;;;4.72;4.53;;;;;;;11.24;100.00;102135.94;6023179;23;20051;-68
2022/07/02 03:02:33;;;;;;;4.70;4.50;;;;;;;11.22;100.00;102129.88;6000686;23;20020;-70
2022/07/02 03:04:59;;;;;;;4.57;4.38;;;;;;;11.17;100.00;102137.06;6006959;23;20030;-69
2022/07/02 03:07:31;;;;;;;5.25;4.95;;;;;;;11.09;100.00;102137.28;6032206;23;20037;-68
2022/07/02 03:09:57;;;;;;;4.70;4.50;;;;;;;11.16;100.00;102145.81;6032307;23;20495;-70
2022/07/02 03:12:24;;;;;;;4.70;4.50;;;;;;;11.03;100.00;102131.38;6024888;23;20519;-70
2022/07/02 03:14:50;;;;;;;4.57;4.38;;;;;;;11.04;100.00;102172.47;6024123;23;20386;-66
2022/07/02 03:17:17;;;;;;;6.55;6.25;;;;;;;10.45;100.00;102063.09;6028992;23;20100;-67
2022/07/02 03:19:45;;;;;;;4.90;4.70;;;;;;;11.06;100.00;102204.81;6028877;23;20031;-67
2022/07/02 03:22:12;;;;;;;7.22;6.82;;;;;;;11.05;100.00;102180.31;6025914;23;20682;-67
2022/07/02 03:24:38;;;;;;;4.53;4.32;;;;;;;11.04;100.00;102198.75;6025187;23;20019;-67
2022/07/02 03:27:06;;;;;;;4.47;4.28;;;;;;;11.05;100.00;102200.50;6028575;23;20080;-65
2022/07/02 03:29:33;;;;;;;4.68;4.47;;;;;;;10.99;100.00;102204.16;6030716;23;20608;-68
2022/07/02 03:32:00;;;;;;;4.70;4.50;;;;;;;10.80;100.00;102164.44;6027028;23;20640;-67
2022/07/02 03:34:26;;;;;;;5.45;5.25;;;;;;;11.02;100.00;102217.19;6023675;23;20048;-72
2022/07/02 03:36:53;;;;;;;4.70;4.50;;;;;;;11.09;100.00;102218.75;6007945;23;20101;-70
2022/07/02 03:39:19;;;;;;;4.60;4.40;;;;;;;10.92;100.00;102157.94;6034085;23;20022;-68
2022/07/02 03:41:46;;;;;;;4.47;4.28;;;;;;;10.62;100.00;102139.56;6034414;23;20147;-68
2022/07/02 03:44:12;;;;;;;5.40;5.20;;;;;;;10.52;100.00;102099.63;6020042;23;20034;-67
2022/07/02 03:46:39;;;;;;;4.70;4.50;;;;;;;11.37;100.00;102217.91;5992565;23;20066;-68
2022/07/02 03:49:05;;;;;;;4.60;4.40;;;;;;;11.42;100.00;102215.13;6032034;23;20042;-67
2022/07/02 03:51:32;;;;;;;4.53;4.32;;;;;;;11.46;100.00;102249.13;6022104;23;20038;-68
2022/07/02 03:53:58;;;;;;;4.85;4.65;;;;;;;11.51;100.00;102234.09;5997574;23;20159;-67
2022/07/02 03:56:25;;;;;;;5.68;5.47;;;;;;;11.57;100.00;102228.63;6020474;23;20098;-66
2022/07/02 03:58:51;;;;;;;4.55;4.35;;;;;;;11.65;100.00;102212.63;6031896;23;20014;-66
2022/07/02 04:01:18;;;;;;;6.18;5.88;;;;;;;11.75;100.00;102248.22;6019922;23;20472;-67
2022/07/02 04:03:44;;;;;;;4.40;4.20;;;;;;;11.78;100.00;102231.47;6032743;23;20033;-71
2022/07/02 04:06:11;;;;;;;6.03;5.72;;;;;;;11.83;100.00;102224.31;6018067;23;20098;-67
2022/07/02 04:08:38;;;;;;;4.60;4.40;;;;;;;11.92;100.00;102217.91;6027878;23;20271;-68
2022/07/02 04:11:04;;;;;;;5.18;4.97;;;;;;;12.00;100.00;102212.41;6020436;23;20038;-68
2022/07/02 04:13:31;;;;;;;4.60;4.40;;;;;;;11.96;100.00;102138.81;6048906;23;20508;-68
2022/07/02 04:15:57;;;;;;;5.25;5.05;;;;;;;13.26;100.00;102226.25;6024047;23;20026;-68
2022/07/02 04:18:25;;;;;;;5.90;5.60;;;;;;;14.28;100.00;102209.78;6022883;23;20312;-68
2022/07/02 04:20:51;;;;;;;4.90;4.70;;;;;;;15.30;100.00;102225.41;6038055;23;20426;-69
2022/07/02 04:23:18;;;;;;;6.35;6.05;;;;;;;16.00;96.92;102203.53;6025157;23;20539;-69
2022/07/02 04:25:44;;;;;;;5.15;4.95;;;;;;;16.55;88.45;102232.44;6023533;23;20643;-69
2022/07/02 04:28:12;;;;;;;6.15;5.85;;;;;;;17.14;83.39;102233.69;6027508;23;20248;-68
2022/07/02 04:30:39;;;;;;;5.25;5.05;;;;;;;17.52;78.80;102220.06;6029601;23;20022;-68
2022/07/02 04:33:05;;;;;;;5.20;5.00;;;;;;;18.04;76.15;102233.91;6025640;23;20222;-69
2022/07/02 04:35:32;;;;;;;6.22;5.93;;;;;;;17.59;72.74;102151.53;6022612;23;20226;-69
2022/07/02 04:37:58;;;;;;;5.65;5.35;;;;;;;17.93;70.74;102223.94;6038051;23;20082;-68
2022/07/02 04:40:25;;;;;;;5.35;5.10;;;;;;;17.81;71.14;102230.78;6023112;23;20444;-69
2022/07/02 04:42:52;;;;;;;5.57;5.38;;;;;;;18.04;71.90;102234.78;6028962;23;20035;-68
2022/07/02 04:45:18;;;;;;;7.00;6.70;;;;;;;18.57;70.27;102232.47;6025274;23;20011;-74
2022/07/02 04:47:45;;;;;;;5.38;5.18;;;;;;;19.43;69.36;102244.84;6037615;23;20046;-69
2022/07/02 04:50:11;;;;;;;6.05;5.75;;;;;;;19.46;66.30;102152.28;6017726;23;20025;-68
2022/07/02 04:52:38;;;;;;;5.35;5.15;;;;;;;20.14;63.01;102211.72;6024965;23;20087;-68
2022/07/02 04:55:05;;;;;;;5.68;5.45;;;;;;;20.78;62.52;102242.88;6027892;23;20176;-68
2022/07/02 04:57:31;;;;;;;5.50;5.30;;;;;;;21.08;59.90;102202.47;6026692;23;20389;-69
2022/07/02 04:59:58;;;;;;;5.78;5.47;;;;;;;21.61;58.70;102779.25;6032972;23;20018;-68
2022/07/02 05:02:25;;;;;;;6.75;6.45;;;;;;;20.91;57.94;102406.53;5995291;23;20536;-69
2022/07/02 05:04:51;;;;;;;5.65;5.40;;;;;;;21.02;55.61;102347.03;6022727;23;20386;-67
2022/07/02 05:07:18;;;;;;;7.20;6.90;;;;;;;21.41;55.64;102356.72;6026419;23;20038;-69
2022/07/02 05:09:50;;;;;;;;;;;;;;;21.06;57.98;102345.88;6021390;23;20014;-68
2022/07/02 05:12:17;;;;;;;7.45;7.07;;;;;;;21.56;56.77;102324.53;6025766;23;19917;-68
2022/07/02 05:14:44;;;;;;;5.80;5.55;;;;;;;20.89;56.08;102253.66;6023620;23;20026;-68
2022/07/02 05:17:11;;;;;;;6.70;6.40;;;;;;;21.02;54.32;102161.03;6027329;23;20086;-68
2022/07/02 05:19:37;;;;;;;5.80;5.50;;;;;;;21.88;52.95;102298.94;6035217;23;20026;-68
2022/07/02 05:22:04;;;;;;;5.90;5.60;;;;;;;22.10;53.24;102290.16;6025855;23;20025;-68
2022/07/02 05:24:30;;;;;;;5.90;5.60;;;;;;;21.27;54.04;102212.66;6019694;23;20027;-72
2022/07/02 05:26:57;;;;;;;5.80;5.50;;;;;;;21.85;52.36;102215.47;6001421;23;20088;-74
2022/07/02 05:29:23;;;;;;;7.22;6.82;;;;;;;21.75;51.98;102263.44;6017641;23;19999;-74
2022/07/02 05:31:50;;;;;;;5.88;5.57;;;;;;;21.56;53.29;102226.53;6028930;23;20049;-69
2022/07/02 05:34:16;;;;;;;7.10;6.78;;;;;;;21.82;52.80;102262.00;6023437;23;20251;-69
2022/07/02 05:36:43;;;;;;;6.07;5.68;;;;;;;21.37;53.47;102251.06;6027257;23;20018;-75
2022/07/02 05:39:10;;;;;;;5.97;5.68;;;;;;;21.33;54.49;102252.25;6022567;23;20054;-74
2022/07/02 05:41:42;;;;;;;5.90;5.60;;;;;;;21.20;55.30;102235.41;5991035;23;20277;-68
2022/07/02 05:44:09;;;;;;;6.30;6.00;;;;;;;20.60;56.80;102221.88;6026874;23;20524;-67
2022/07/02 05:46:35;;;;;;;6.10;5.80;;;;;;;21.20;54.34;102235.41;5993431;23;20015;-67
2022/07/02 05:49:02;;;;;;;6.63;6.32;;;;;;;21.81;52.91;102238.94;6026194;23;20027;-67
2022/07/02 05:51:29;;;;;;;6.38;6.07;;;;;;;20.98;55.18;102186.25;6025125;23;20020;-67
2022/07/02 05:54:00;;;;;;;5.95;5.65;;;;;;;21.11;56.88;102229.78;6019970;23;20026;-67
2022/07/02 05:56:26;;;;;;;6.18;5.88;;;;;;;21.80;53.76;102218.50;5999638;23;20043;-67
2022/07/02 05:58:53;;;;;;;5.88;5.50;;;;;;;21.79;53.06;102248.88;6017111;23;20246;-68
2022/07/02 06:01:19;;;;;;;7.10;6.80;;;;;;;21.82;53.82;102227.25;6017454;23;20053;-67
2022/07/02 06:03:45;;;;;;;5.55;5.35;;;;;;;21.73;52.58;102235.09;5993106;23;20023;-67
2022/07/02 06:08:57;;;;;;;5.65;5.43;;;;;;;22.83;49.46;102177.53;6004064;23;20433;-67
2022/07/02 06:11:23;;;;;;;7.03;6.72;;;;;;;22.79;49.34;102232.28;6021323;23;20031;-67
2022/07/02 06:13:50;;;;;;;5.90;5.60;;;;;;;22.44;49.88;102227.91;5995555;23;20086;-68
2022/07/02 06:16:16;;;;;;;6.90;6.60;;;;;;;21.98;50.93;102178.81;6021933;23;20082;-67
2022/07/02 06:18:43;;;;;;;6.05;5.75;;;;;;;22.80;49.90;102220.63;5993373;23;20035;-75
2022/07/02 06:21:10;;;;;;;6.65;6.35;;;;;;;23.13;48.49;102233.13;6023322;23;20260;-73
2022/07/02 06:23:37;;;;;;;5.70;5.50;;;;;;;23.53;46.39;102237.88;6024647;23;20019;-68
2022/07/02 06:26:03;;;;;;;5.68;5.38;;;;;;;22.84;47.72;102228.28;5991739;23;20397;-68
2022/07/02 06:28:30;;;;;;;6.03;5.72;;;;;;;22.79;49.34;102243.88;6026733;23;20033;-68
2022/07/02 06:30:56;;;;;;;5.90;5.65;;;;;;;21.66;50.12;102133.19;5988974;23;20007;-69
2022/07/02 06:33:23;;;;;;;7.63;7.22;;;;;;;21.92;50.76;102219.38;6017334;23;20447;-69
2022/07/02 06:35:49;;;;;;;5.93;5.63;;;;;;;21.74;55.25;102212.78;5993120;23;20087;-68
2022/07/02 06:38:16;;;;;;;7.82;7.43;;;;;;;21.07;56.85;102212.28;6017232;23;20017;-69
2022/07/02 06:40:42;;;;;;;6.53;5.93;;;;;;;20.93;58.17;102207.09;6026728;23;20026;-66
2022/07/02 06:43:09;;;;;;;6.63;6.32;;;;;;;20.64;57.23;102206.50;6014349;23;20394;-66
2022/07/02 06:45:35;;;;;;;5.70;5.50;;;;;;;20.19;57.16;102203.41;6021649;23;20098;-66
2022/07/02 06:48:02;;;;;;;5.80;5.53;;;;;;;19.64;59.20;102160.03;6017163;23;20086;-66
2022/07/02 06:50:28;;;;;;;5.95;5.65;;;;;;;19.96;61.61;102202.31;6018005;23;20015;-66
2022/07/02 06:53:00;;;;;;;5.90;5.60;;;;;;;20.15;62.21;102197.44;6010533;23;20019;-67
2022/07/02 06:55:27;;;;;;;5.78;5.47;;;;;;;19.85;61.82;102185.25;6015088;23;20478;-67
2022/07/02 06:57:53;;;;;;;5.75;5.50;;;;;;;20.14;60.53;102193.03;6005554;23;20617;-67
2022/07/02 07:00:23;;;;;;;7.00;6.70;;;;;;;20.36;61.07;102200.41;6015845;23;20022;-67
2022/07/02 07:02:50;;;;;;;6.00;5.70;;;;;;;20.46;61.02;102197.97;6012693;23;20086;-67
2022/07/02 07:05:21;;;;;;;7.38;7.07;;;;;;;20.23;59.67;102104.44;5994510;23;20104;-65
2022/07/02 07:07:48;;;;;;;5.70;5.40;;;;;;;20.68;57.20;102189.31;5976779;23;20019;-67
2022/07/02 07:10:14;;;;;;;7.38;7.07;;;;;;;20.44;58.40;102165.22;5996174;23;20508;-72
2022/07/02 07:12:41;;;;;;;5.70;5.40;;;;;;;20.79;57.44;102188.53;5998028;23;20204;-68
2022/07/02 07:15:09;;;;;;;6.22;5.93;;;;;;;19.93;56.98;102047.03;5998568;23;20505;-67
2022/07/02 07:17:38;;;;;;;5.55;5.32;;;;;;;20.51;57.56;102177.16;5992170;23;20035;-68
2022/07/02 07:20:05;;;;;;;6.68;6.28;;;;;;;20.35;58.62;102152.50;5992185;23;20405;-73
2022/07/02 07:22:32;;;;;;;5.40;5.20;;;;;;;20.44;57.26;102178.53;5992783;23;20102;-67
2022/07/02 07:24:58;;;;;;;5.97;5.68;;;;;;;20.31;58.83;102165.22;5993739;23;20019;-67
2022/07/02 07:27:25;;;;;;;6.50;6.20;;;;;;;20.52;58.54;102185.03;5991803;23;20311;-67
2022/07/02 07:29:52;;;;;;;16.80;15.98;;;;;;;20.59;58.18;102177.50;5817379;24;20345;-66
2022/07/02 07:32:19;;;;;;;7.30;6.97;;;;;;;20.24;57.84;102111.47;5988633;23;20645;-72
2022/07/02 07:34:45;;;;;;;5.45;5.25;;;;;;;20.78;58.58;102182.34;5998726;23;20086;-72
2022/07/02 07:37:13;;;;;;;6.38;6.07;;;;;;;20.79;56.10;102183.19;5992995;23;20114;-73
2022/07/02 07:39:39;;;;;;;5.47;5.28;;;;;;;20.80;57.18;102177.75;5971779;23;20034;-66
2022/07/02 07:42:06;;;;;;;5.47;5.20;;;;;;;21.04;56.78;102188.47;5985851;23;20027;-68
2022/07/02 07:44:32;;;;;;;5.70;5.40;;;;;;;21.25;56.71;102185.22;6000474;23;20407;-67
2022/07/02 07:46:59;;;;;;;5.50;5.28;;;;;;;20.89;54.02;102112.22;5977271;23;20087;-66
2022/07/02 07:49:25;;;;;;;7.07;6.78;;;;;;;21.34;55.04;102181.84;6008468;23;20034;-68
2022/07/02 07:51:52;;;;;;;5.97;5.68;;;;;;;21.25;53.80;102167.38;6008756;23;20031;-66
2022/07/02 07:54:18;;;;;;;7.05;6.75;;;;;;;21.25;53.80;102177.22;5998542;23;20046;-66
2022/07/02 07:56:45;;;;;;;5.70;5.40;;;;;;;21.38;55.92;102177.13;5986169;23;20101;-69
2022/07/02 07:59:11;;;;;;;6.05;5.75;;;;;;;21.51;51.07;102181.47;6003729;23;20050;-73
2022/07/02 08:01:38;;;;;;;5.50;5.30;;;;;;;20.57;50.86;102015.81;5992966;23;20102;-68
2022/07/02 08:04:04;;;;;;;5.40;5.20;;;;;;;21.60;49.51;102161.22;6016774;23;20030;-69
2022/07/02 08:06:31;;;;;;;6.20;5.90;;;;;;;21.73;50.05;102130.88;5999624;23;20191;-71
2022/07/02 08:08:59;;;;;;;5.57;5.30;;;;;;;22.18;47.44;102177.28;6028866;23;20459;-72
2022/07/02 08:11:26;;;;;;;6.75;6.45;;;;;;;22.38;47.94;102190.94;5998148;23;20035;-67
2022/07/02 08:13:54;;;;;;;5.90;5.60;;;;;;;22.38;48.61;102161.53;6021819;23;20194;-67
2022/07/02 08:16:20;;;;;;;6.57;6.28;;;;;;;22.62;46.76;102189.00;6028580;23;20037;-70
2022/07/02 08:18:47;;;;;;;5.57;5.38;;;;;;;22.53;45.22;102181.69;6017102;23;20413;-72
2022/07/02 08:21:13;;;;;;;6.50;6.20;;;;;;;22.43;46.92;102186.94;6029719;23;20420;-67
2022/07/02 08:23:40;;;;;;;5.68;5.43;;;;;;;22.59;47.01;102169.66;6021686;23;20565;-67
2022/07/02 08:26:06;;;;;;;5.45;5.25;;;;;;;22.27;45.08;102151.66;6002149;23;20494;-69
2022/07/02 08:28:33;;;;;;;5.55;5.30;;;;;;;21.94;45.45;102093.66;6024928;23;20034;-71
2022/07/02 08:31:00;;;;;;;6.20;5.90;;;;;;;22.50;44.88;102160.53;6012352;23;20038;-70
2022/07/02 08:33:27;;;;;;;6.35;6.05;;;;;;;22.27;45.92;102111.53;6052137;23;20018;-68
2022/07/02 08:35:54;;;;;;;5.50;5.30;;;;;;;22.69;42.87;102165.25;5994239;23;20016;-68
2022/07/02 08:38:20;;;;;;;6.97;6.68;;;;;;;22.97;44.61;102179.94;6017862;23;20365;-68
2022/07/02 08:40:48;;;;;;;5.78;5.47;;;;;;;23.03;43.02;102157.19;6018316;23;20543;-68
2022/07/02 08:43:16;;;;;;;7.03;6.72;;;;;;;22.72;43.39;102103.47;6024163;23;20394;-67
2022/07/02 08:45:43;;;;;;;5.90;5.60;;;;;;;23.24;42.30;102163.47;6035227;23;20063;-72
2022/07/02 08:48:11;;;;;;;6.07;5.80;;;;;;;22.89;41.82;102126.16;6023696;23;20061;-68
2022/07/02 08:50:38;;;;;;;6.10;5.80;;;;;;;23.08;42.09;102126.38;6016028;23;20519;-68
2022/07/02 08:53:05;;;;;;;5.60;5.40;;;;;;;23.31;42.19;102137.00;6023709;23;20085;-67
2022/07/02 08:55:34;;;;;;;5.78;5.50;;;;;;;23.20;40.59;102112.97;5995990;23;20113;-67
2022/07/02 08:58:00;;;;;;;5.70;5.50;;;;;;;23.40;38.98;102122.00;5994377;23;20388;-67
2022/07/02 09:00:28;;;;;;;6.47;6.18;;;;;;;23.58;37.65;102147.25;6022139;23;20475;-68
2022/07/02 09:02:58;;;;;;;5.40;5.20;;;;;;;23.26;39.21;102107.09;5993830;23;20036;-68
2022/07/02 09:05:27;;;;;;;7.03;6.72;;;;;;;23.30;40.50;102074.56;6025329;23;20059;-68
2022/07/02 09:07:56;;;;;;;5.43;5.22;;;;;;;23.60;40.03;102110.44;6021998;23;20026;-67
2022/07/02 09:10:24;;;;;;;6.40;6.10;;;;;;;23.83;37.21;102196.97;6025115;23;20101;-72
2022/07/02 09:12:53;;;;;;;5.57;5.38;;;;;;;23.76;39.77;102139.47;6039319;23;20046;-67
2022/07/02 09:15:20;;;;;;;7.10;6.63;;;;;;;23.64;39.66;102133.31;6023123;23;20320;-71
2022/07/02 09:17:46;;;;;;;5.45;5.25;;;;;;;23.75;39.56;102113.63;6029708;23;20030;-68
2022/07/02 09:20:16;;;;;;;7.03;6.72;;;;;;;24.09;40.28;102454.06;6028612;23;20548;-67
2022/07/02 09:22:46;;;;;;;5.65;5.35;;;;;;;24.12;38.18;102155.25;6023446;23;20072;-68
2022/07/02 09:25:17;;;;;;;6.40;6.10;;;;;;;24.59;35.37;102140.34;6021220;23;20019;-66
2022/07/02 09:27:45;;;;;;;5.38;5.18;;;;;;;25.04;37.51;102144.41;6023877;23;20051;-66
2022/07/02 09:30:16;;;;;;;7.00;6.60;;;;;;;25.03;36.16;102134.63;6033756;23;20187;-67
2022/07/02 09:32:45;;;;;;;5.60;5.40;;;;;;;24.82;34.45;102138.28;6028015;23;20129;-70
2022/07/02 09:35:17;;;;;;;5.57;5.38;;;;;;;25.04;36.43;102112.16;6017615;23;20094;-73
2022/07/02 09:37:44;;;;;;;5.30;5.10;;;;;;;24.74;34.72;102107.75;6032276;23;20278;-71
2022/07/02 09:40:11;;;;;;;7.13;6.82;;;;;;;24.31;35.68;102072.13;6025646;23;20097;-74
2022/07/02 09:42:37;;;;;;;5.35;5.15;;;;;;;24.61;37.16;102122.25;6028828;23;20026;-73
2022/07/02 09:45:05;;;;;;;5.57;5.28;;;;;;;24.92;35.62;102132.94;6026963;23;20086;-72
2022/07/02 09:47:40;;;;;;;5.70;5.40;;;;;;;24.94;33.30;102130.09;5992716;23;20430;-67
2022/07/02 09:50:09;;;;;;;5.15;4.95;;;;;;;24.92;34.98;102124.88;6024873;23;20098;-67
2022/07/02 09:52:46;;;;;;;5.40;5.20;;;;;;;24.51;35.61;102104.44;6022264;23;20468;-71
2022/07/02 09:55:24;;;;;;;6.78;6.47;;;;;;;24.49;33.74;102102.69;6017869;23;20034;-67
2022/07/02 09:57:57;;;;;;;5.53;5.32;;;;;;;24.27;35.08;102078.75;6026480;23;20330;-67
2022/07/02 10:00:25;;;;;;;7.03;6.72;;;;;;;24.40;34.97;102097.31;6012521;23;20025;-73
2022/07/02 10:02:54;;;;;;;5.45;5.20;;;;;;;24.35;35.73;102086.13;6029412;23;20035;-71
2022/07/02 10:05:24;;;;;;;6.90;6.60;;;;;;;24.53;36.28;102094.41;5992030;23;20170;-73
2022/07/02 10:07:52;;;;;;;5.43;5.22;;;;;;;24.59;33.60;102083.97;5966801;23;20014;-67
2022/07/02 10:10:25;;;;;;;6.60;6.30;;;;;;;24.81;35.35;102065.91;5992023;23;20446;-67
2022/07/02 10:12:55;;;;;;;5.70;5.40;;;;;;;24.85;35.15;102161.31;5964599;23;20024;-67
2022/07/02 10:15:24;;;;;;;6.97;6.68;;;;;;;24.74;36.16;102183.78;5990254;23;20102;-71
2022/07/02 10:17:55;;;;;;;5.30;5.10;;;;;;;24.40;34.70;102043.66;5998354;23;20411;-67
2022/07/02 10:20:25;;;;;;;6.43;6.13;;;;;;;25.12;35.25;102092.63;5986368;23;20011;-71
2022/07/02 10:22:52;;;;;;;5.50;5.30;;;;;;;25.44;35.34;102076.25;5971310;23;20114;-67
2022/07/02 10:25:19;;;;;;;6.35;6.05;;;;;;;25.65;34.90;102084.97;5994804;23;20094;-73
2022/07/02 10:27:46;;;;;;;5.50;5.30;;;;;;;25.08;35.32;102146.66;6002063;23;20030;-67
2022/07/02 10:30:20;;;;;;;6.50;6.20;;;;;;;25.16;35.15;102108.34;5995622;23;20517;-67
2022/07/02 10:32:53;;;;;;;5.50;5.30;;;;;;;25.55;35.01;102108.34;5995515;23;20104;-67
2022/07/02 10:35:23;;;;;;;6.90;6.60;;;;;;;25.43;35.66;102088.81;5997522;23;20453;-67
2022/07/02 10:37:56;;;;;;;5.50;5.30;;;;;;;24.73;34.79;102025.50;5993511;23;20023;-73
2022/07/02 10:40:23;;;;;;;6.80;6.50;;;;;;;24.62;34.66;102000.50;5982416;23;20220;-73
2022/07/02 10:42:51;;;;;;;5.40;5.20;;;;;;;25.21;35.85;102051.50;5994016;23;20031;-72
2022/07/02 10:45:20;;;;;;;6.72;6.43;;;;;;;24.39;35.40;102190.38;5994132;23;20034;-75
2022/07/02 10:48:01;;;;;;;5.57;5.35;;;;;;;25.42;35.53;102245.72;5973443;23;20019;-71
2022/07/02 10:50:39;;;;;;;5.60;5.40;;;;;;;25.79;36.51;102214.59;5986698;23;20047;-73
2022/07/02 10:53:15;;;;;;;6.25;5.95;;;;;;;25.29;35.91;102083.91;5967398;23;20035;-67
2022/07/02 10:56:03;;;;;;;5.47;5.28;;;;;;;26.07;34.11;102207.50;5997112;23;20088;-74
2022/07/02 10:58:36;;;;;;;5.70;5.40;;;;;;;26.00;35.56;102187.53;5996095;23;20453;-73
2022/07/02 11:01:14;;;;;;;5.40;5.20;;;;;;;25.61;35.04;102161.53;5979865;23;20028;-72
2022/07/02 11:03:56;;;;;;;5.53;5.32;;;;;;;25.37;35.41;102129.72;6006161;23;20027;-67
2022/07/02 11:06:27;;;;;;;5.50;5.30;;;;;;;24.84;36.84;101987.78;6014776;23;20045;-72
2022/07/02 11:08:56;;;;;;;5.70;5.40;;;;;;;25.96;36.51;102110.81;6030401;23;20338;-72
2022/07/02 11:11:30;;;;;;;6.85;6.55;;;;;;;26.37;34.54;102127.50;6012403;23;20023;-75
2022/07/02 11:14:08;;;;;;;5.38;5.18;;;;;;;25.94;34.65;102131.63;5997751;23;20090;-67
2022/07/02 11:16:38;;;;;;;5.60;5.30;;;;;;;25.28;34.83;102072.31;6021957;23;20094;-73
2022/07/02 11:19:19;;;;;;;5.90;5.60;;;;;;;25.30;33.86;102042.63;5998634;23;20089;-67
2022/07/02 11:21:48;;;;;;;5.85;5.55;;;;;;;25.63;36.41;102115.69;6028018;23;20027;-70
2022/07/02 11:24:16;;;;;;;6.85;6.55;;;;;;;25.36;35.28;102007.09;6020257;23;20452;-66
2022/07/02 11:26:43;;;;;;;5.70;5.50;;;;;;;25.71;35.65;102053.13;6032615;23;20079;-71
2022/07/02 11:29:09;;;;;;;6.00;5.70;;;;;;;26.20;35.54;102095.00;6017369;23;20174;-74